createdAt,value
2022-12-16T00:01:49.319Z,1.40
2022-12-16T00:04:18.195Z,1.38
2022-12-16T00:06:46.283Z,1.44
2022-12-16T00:09:14.431Z,1.40
2022-12-16T00:11:42.472Z,1.24
2022-12-16T00:14:10.401Z,1.24
2022-12-16T00:16:39.836Z,1.36
2022-12-16T00:19:07.847Z,1.57
2022-12-16T00:21:37.039Z,1.52
2022-12-16T00:24:05.302Z,1.43
2022-12-16T00:26:33.321Z,1.59
2022-12-16T00:29:01.849Z,1.49
2022-12-16T00:31:30.067Z,1.54
2022-12-16T00:34:00.128Z,1.37
2022-12-16T00:36:28.216Z,1.25
2022-12-16T00:38:56.219Z,1.21
2022-12-16T00:41:24.274Z,1.36
2022-12-16T00:43:52.344Z,1.24
2022-12-16T00:46:20.362Z,1.16
2022-12-16T00:48:48.382Z,1.40
2022-12-16T00:51:17.790Z,1.31
2022-12-16T00:53:45.850Z,1.17
2022-12-16T00:56:15.707Z,1.40
2022-12-16T00:58:43.677Z,1.34
2022-12-16T01:01:12.745Z,1.50
2022-12-16T01:03:41.722Z,1.49
2022-12-16T01:06:11.969Z,1.67
2022-12-16T01:08:48.446Z,1.53
2022-12-16T01:11:17.569Z,1.64
2022-12-16T01:13:46.034Z,1.58
2022-12-16T01:16:14.883Z,1.74
2022-12-16T01:18:42.901Z,1.48
2022-12-16T01:21:15.013Z,1.36
2022-12-16T01:23:44.367Z,1.22
2022-12-16T01:26:17.969Z,1.32
2022-12-16T01:28:46.135Z,1.29
2022-12-16T01:31:16.021Z,1.35
2022-12-16T01:33:44.089Z,1.13
2022-12-16T01:36:12.204Z,1.21
2022-12-16T01:38:42.871Z,0.96
2022-12-16T01:41:12.814Z,0.78
2022-12-16T01:43:43.150Z,0.95
2022-12-16T01:46:19.430Z,1.14
2022-12-16T01:48:52.163Z,1.41
2022-12-16T01:51:25.455Z,1.59
2022-12-16T01:53:58.155Z,1.45
2022-12-16T01:56:32.054Z,1.47
2022-12-16T01:59:01.732Z,1.20
2022-12-16T02:01:30.064Z,1.10
2022-12-16T02:04:02.539Z,1.32
2022-12-16T02:06:31.058Z,1.27
2022-12-16T02:09:02.990Z,1.21
2022-12-16T02:11:55.697Z,1.26
2022-12-16T02:14:45.992Z,1.19
2022-12-16T02:17:17.422Z,1.03
2022-12-16T02:20:15.693Z,1.09
2022-12-16T02:23:04.445Z,1.12
2022-12-16T02:26:09.593Z,1.28
2022-12-16T02:28:59.595Z,1.25
2022-12-16T02:31:36.449Z,1.36
2022-12-16T02:34:16.769Z,1.43
2022-12-16T02:36:57.981Z,1.44
2022-12-16T02:39:32.665Z,1.57
2022-12-16T02:42:08.322Z,1.54
2022-12-16T02:44:45.877Z,1.61
2022-12-16T02:47:15.387Z,1.35
2022-12-16T02:49:47.569Z,1.20
2022-12-16T02:52:17.390Z,1.25
2022-12-16T02:54:47.227Z,1.17
2022-12-16T02:57:33.649Z,1.27
2022-12-16T03:00:06.066Z,1.08
2022-12-16T03:02:43.251Z,1.22
2022-12-16T03:05:16.856Z,1.14
2022-12-16T03:07:46.223Z,1.16
2022-12-16T03:10:18.802Z,1.25
2022-12-16T03:12:47.568Z,0.85
2022-12-16T03:15:18.784Z,0.95
2022-12-16T03:17:51.671Z,1.19
2022-12-16T03:20:24.656Z,1.34
2022-12-16T03:22:55.609Z,1.24
2022-12-16T03:25:24.909Z,1.50
2022-12-16T03:28:00.027Z,1.47
2022-12-16T03:30:31.181Z,1.50
2022-12-16T03:33:04.364Z,1.11
2022-12-16T03:35:39.078Z,0.89
2022-12-16T03:38:11.482Z,1.45
2022-12-16T03:40:42.238Z,1.41
2022-12-16T03:43:12.246Z,1.40
2022-12-16T03:45:43.983Z,1.55
2022-12-16T03:48:16.914Z,1.76
2022-12-16T03:50:45.008Z,1.41
2022-12-16T03:53:12.973Z,1.40
2022-12-16T03:55:41.276Z,1.25
2022-12-16T03:58:09.420Z,1.50
2022-12-16T04:00:37.563Z,1.57
2022-12-16T04:03:05.766Z,1.60
2022-12-16T04:05:35.297Z,1.64
2022-12-16T04:08:03.393Z,1.37
2022-12-16T04:10:54.354Z,1.61
2022-12-16T04:13:55.205Z,1.43
2022-12-16T04:16:41.088Z,1.35
2022-12-16T04:19:36.020Z,1.32
2022-12-16T04:22:28.256Z,1.31
2022-12-16T04:24:56.514Z,1.26
2022-12-16T04:27:27.863Z,1.50
2022-12-16T04:30:13.979Z,1.43
2022-12-16T04:32:59.977Z,1.02
2022-12-16T04:35:45.712Z,1.28
2022-12-16T04:38:32.867Z,1.61
2022-12-16T04:41:18.552Z,1.56
2022-12-16T04:44:04.224Z,1.33
2022-12-16T04:46:49.582Z,1.49
2022-12-16T04:49:35.194Z,1.52
2022-12-16T04:52:20.595Z,1.57
2022-12-16T04:55:07.767Z,1.65
2022-12-16T04:57:53.527Z,1.38
2022-12-16T05:00:39.377Z,1.40
2022-12-16T05:03:25.232Z,1.61
2022-12-16T05:06:10.629Z,1.48
2022-12-16T05:08:56.562Z,1.45
2022-12-16T05:11:43.680Z,1.60
2022-12-16T05:14:29.365Z,1.52
2022-12-16T05:17:14.891Z,1.71
2022-12-16T05:20:00.445Z,1.37
2022-12-16T05:22:46.028Z,1.60
2022-12-16T05:25:31.346Z,1.58
2022-12-16T05:28:18.078Z,1.83
2022-12-16T05:31:03.543Z,1.91
2022-12-16T05:33:49.438Z,1.91
2022-12-16T05:36:34.837Z,1.88
2022-12-16T05:39:20.589Z,1.81
2022-12-16T05:42:05.839Z,2.18
2022-12-16T05:44:53.033Z,2.07
2022-12-16T05:47:38.899Z,2.09
2022-12-16T05:50:25.224Z,1.88
2022-12-16T05:53:17.345Z,1.84
2022-12-16T05:56:02.926Z,2.02
2022-12-16T05:58:50.727Z,2.28
2022-12-16T06:01:37.563Z,2.41
2022-12-16T06:04:23.651Z,2.28
2022-12-16T06:07:08.982Z,2.09
2022-12-16T06:09:56.795Z,2.21
2022-12-16T06:12:42.720Z,2.13
2022-12-16T06:15:28.998Z,2.15
2022-12-16T06:18:15.585Z,2.36
2022-12-16T06:21:09.432Z,1.95
2022-12-16T06:23:54.733Z,1.98
2022-12-16T06:26:40.014Z,2.37
2022-12-16T06:29:27.506Z,2.05
2022-12-16T06:32:13.156Z,2.25
2022-12-16T06:35:00.121Z,2.04
2022-12-16T06:37:45.621Z,1.99
2022-12-16T06:40:30.824Z,1.96
2022-12-16T06:43:16.167Z,1.97
2022-12-16T06:46:01.613Z,2.27
2022-12-16T06:48:46.917Z,1.98
2022-12-16T06:51:33.457Z,2.10
2022-12-16T06:54:18.698Z,2.09
2022-12-16T06:57:03.997Z,2.14
2022-12-16T06:59:51.606Z,2.13
2022-12-16T07:02:37.114Z,2.12
2022-12-16T07:05:22.992Z,1.91
2022-12-16T07:08:10.708Z,1.88
2022-12-16T07:11:02.339Z,1.77
2022-12-16T07:13:55.621Z,2.23
2022-12-16T07:16:41.313Z,2.06
2022-12-16T07:19:26.670Z,2.31
2022-12-16T07:22:11.115Z,2.34
2022-12-16T07:24:57.679Z,2.34
2022-12-16T07:27:43.057Z,2.28
2022-12-16T07:30:29.397Z,2.62
2022-12-16T07:33:14.627Z,2.76
2022-12-16T07:36:01.990Z,2.61
2022-12-16T07:38:47.155Z,2.85
2022-12-16T07:41:34.185Z,2.89
2022-12-16T07:44:23.131Z,2.87
2022-12-16T07:47:12.105Z,2.93
2022-12-16T07:49:58.861Z,2.74
2022-12-16T07:52:44.266Z,2.62
2022-12-16T07:55:29.651Z,2.66
2022-12-16T07:58:16.309Z,2.88
2022-12-16T08:01:06.251Z,3.06
2022-12-16T08:03:54.567Z,2.72
2022-12-16T08:06:41.832Z,2.82
2022-12-16T08:09:27.129Z,2.88
2022-12-16T08:12:12.390Z,2.83
2022-12-16T08:14:58.975Z,2.66
2022-12-16T08:17:44.482Z,2.83
2022-12-16T08:20:29.880Z,2.99
2022-12-16T08:23:15.380Z,3.09
2022-12-16T08:26:00.961Z,3.34
2022-12-16T08:28:46.354Z,3.41
2022-12-16T08:31:33.590Z,3.46
2022-12-16T08:34:18.935Z,3.37
2022-12-16T08:37:04.374Z,3.37
2022-12-16T08:40:10.661Z,3.35
2022-12-16T08:43:00.674Z,3.28
2022-12-16T08:45:46.194Z,3.32
2022-12-16T08:48:33.200Z,3.23
2022-12-16T08:51:20.667Z,3.52
2022-12-16T08:54:06.425Z,3.57
2022-12-16T08:56:51.797Z,3.37
2022-12-16T08:59:37.257Z,2.90
2022-12-16T09:02:23.252Z,3.22
2022-12-16T09:05:10.505Z,3.08
2022-12-16T09:07:57.101Z,3.32
2022-12-16T09:10:42.513Z,3.53
2022-12-16T09:13:30.821Z,3.50
2022-12-16T09:16:19.524Z,3.37
2022-12-16T09:19:05.947Z,3.37
2022-12-16T09:21:53.106Z,3.56
2022-12-16T09:24:40.371Z,2.96
2022-12-16T09:27:25.592Z,2.90
2022-12-16T09:30:11.077Z,3.23
2022-12-16T09:33:01.045Z,2.72
2022-12-16T09:35:46.502Z,2.76
2022-12-16T09:38:33.755Z,2.26
2022-12-16T09:41:41.272Z,2.26
2022-12-16T09:44:41.726Z,2.42
2022-12-16T09:47:37.072Z,2.48
2022-12-16T09:50:23.814Z,2.35
2022-12-16T09:53:14.918Z,1.60
2022-12-16T09:56:04.471Z,1.96
2022-12-16T09:58:56.613Z,1.40
2022-12-16T10:01:43.957Z,0.84
2022-12-16T10:04:29.719Z,1.25
2022-12-16T10:07:18.657Z,1.37
2022-12-16T10:10:16.169Z,1.31
2022-12-16T10:13:11.289Z,1.21
2022-12-16T10:16:04.238Z,2.00
2022-12-16T10:19:03.444Z,1.31
2022-12-16T10:22:09.286Z,1.08
2022-12-16T10:25:05.689Z,0.97
2022-12-16T10:27:57.301Z,0.66
2022-12-16T10:30:44.393Z,0.75
2022-12-16T10:33:33.943Z,0.59
2022-12-16T10:36:20.092Z,1.03
2022-12-16T10:39:10.612Z,0.83
2022-12-16T10:41:59.104Z,0.51
2022-12-16T10:44:50.493Z,0.80
2022-12-16T10:47:39.534Z,0.39
2022-12-16T10:50:25.786Z,1.10
2022-12-16T10:53:17.018Z,1.03
2022-12-16T10:56:13.704Z,0.97
2022-12-16T10:59:18.082Z,0.82
2022-12-16T11:02:16.245Z,0.74
2022-12-16T11:05:03.809Z,0.81
2022-12-16T11:07:52.081Z,0.90
2022-12-16T11:10:57.142Z,1.39
2022-12-16T11:13:44.538Z,1.45
2022-12-16T11:16:33.278Z,1.68
2022-12-16T11:19:19.127Z,2.22
2022-12-16T11:22:06.418Z,1.92
2022-12-16T11:24:52.199Z,1.48
2022-12-16T11:27:42.984Z,1.07
2022-12-16T11:30:37.825Z,2.00
2022-12-16T11:33:31.115Z,1.41
2022-12-16T11:36:26.030Z,1.12
2022-12-16T11:39:13.099Z,1.50
2022-12-16T11:42:00.389Z,2.02
2022-12-16T11:44:51.613Z,1.77
2022-12-16T11:47:46.245Z,1.79
2022-12-16T11:50:36.054Z,1.57
2022-12-16T11:53:23.867Z,2.13
2022-12-16T11:56:16.208Z,1.73
2022-12-16T11:59:05.424Z,1.28
2022-12-16T12:01:56.567Z,1.13
2022-12-16T12:04:42.450Z,0.94
2022-12-16T12:07:45.327Z,0.89
2022-12-16T12:10:57.662Z,1.78
2022-12-16T12:14:01.442Z,2.00
2022-12-16T12:16:56.252Z,2.41
2022-12-16T12:19:54.690Z,1.60
2022-12-16T12:22:51.385Z,2.03
2022-12-16T12:25:43.398Z,1.96
2022-12-16T12:28:40.223Z,1.67
2022-12-16T12:31:40.984Z,1.18
2022-12-16T12:34:37.710Z,0.93
2022-12-16T12:37:31.763Z,1.73
2022-12-16T12:40:28.003Z,1.70
2022-12-16T12:43:15.251Z,1.64
2022-12-16T12:46:12.300Z,1.89
2022-12-16T12:49:05.986Z,1.73
2022-12-16T12:52:00.557Z,1.85
2022-12-16T12:54:49.611Z,1.81
2022-12-16T12:57:41.387Z,1.76
2022-12-16T13:00:35.889Z,2.42
2022-12-16T13:03:26.870Z,1.78
2022-12-16T13:06:14.634Z,1.66
2022-12-16T13:09:13.517Z,2.28
2022-12-16T13:12:24.070Z,2.67
2022-12-16T13:15:15.278Z,2.04
2022-12-16T13:18:38.245Z,1.93
2022-12-16T13:22:04.914Z,2.99
2022-12-16T13:25:05.785Z,2.88
2022-12-16T13:28:08.133Z,2.34
2022-12-16T13:30:54.284Z,1.53
2022-12-16T13:33:46.325Z,1.86
2022-12-16T13:36:33.981Z,2.41
2022-12-16T13:39:41.038Z,2.89
2022-12-16T13:43:05.588Z,2.75
2022-12-16T13:45:53.776Z,2.93
2022-12-16T13:48:51.041Z,2.54
2022-12-16T13:52:25.822Z,2.59
2022-12-16T13:55:24.945Z,2.68
2022-12-16T13:58:23.507Z,2.66
2022-12-16T14:01:29.636Z,2.55
2022-12-16T14:04:17.489Z,2.06
2022-12-16T14:07:04.171Z,2.46
2022-12-16T14:09:54.141Z,2.76
2022-12-16T14:13:02.614Z,1.55
2022-12-16T14:15:53.941Z,1.34
2022-12-16T14:18:51.696Z,1.76
2022-12-16T14:21:47.927Z,1.92
2022-12-16T14:24:42.407Z,0.97
2022-12-16T14:27:37.467Z,1.57
2022-12-16T14:30:36.079Z,2.12
2022-12-16T14:33:31.323Z,2.48
2022-12-16T14:36:17.353Z,2.42
2022-12-16T14:39:07.439Z,2.61
2022-12-16T14:41:53.344Z,2.67
2022-12-16T14:44:41.301Z,2.74
2022-12-16T14:47:36.331Z,2.88
2022-12-16T14:50:22.810Z,3.05
2022-12-16T14:53:08.075Z,3.04
2022-12-16T14:55:54.192Z,2.44
2022-12-16T14:58:53.043Z,2.85
2022-12-16T15:01:41.825Z,3.12
2022-12-16T15:04:36.041Z,3.16
2022-12-16T15:07:30.787Z,3.34
2022-12-16T15:10:26.513Z,3.43
2022-12-16T15:13:11.988Z,3.47
2022-12-16T15:16:01.048Z,3.22
2022-12-16T15:18:51.626Z,3.06
2022-12-16T15:21:38.817Z,2.56
2022-12-16T15:24:27.609Z,2.36
2022-12-16T15:27:40.936Z,2.40
2022-12-16T15:30:51.356Z,2.68
2022-12-16T15:33:39.329Z,2.46
2022-12-16T15:36:31.279Z,2.45
2022-12-16T15:39:18.312Z,2.05
2022-12-16T15:42:06.092Z,2.06
2022-12-16T15:44:52.258Z,2.19
2022-12-16T15:47:44.896Z,2.23
2022-12-16T15:50:32.718Z,2.59
2022-12-16T15:53:33.961Z,2.50
2022-12-16T15:56:32.832Z,2.73
2022-12-16T15:59:33.111Z,2.56
2022-12-16T16:02:25.126Z,2.51
2022-12-16T16:05:12.273Z,2.69
2022-12-16T16:08:03.343Z,2.37
2022-12-16T16:10:49.261Z,2.07
2022-12-16T16:13:36.651Z,2.45
2022-12-16T16:16:22.349Z,2.73
2022-12-16T16:19:08.145Z,2.57
2022-12-16T16:21:53.832Z,2.24
2022-12-16T16:24:39.206Z,2.03
2022-12-16T16:27:29.997Z,1.14
2022-12-16T16:30:17.511Z,2.01
2022-12-16T16:33:03.865Z,2.25
2022-12-16T16:35:49.899Z,2.19
2022-12-16T16:38:35.382Z,2.38
2022-12-16T16:41:21.282Z,2.44
2022-12-16T16:44:06.530Z,2.23
2022-12-16T16:46:56.068Z,2.18
2022-12-16T16:49:43.466Z,2.44
2022-12-16T16:52:30.812Z,2.46
2022-12-16T16:55:16.266Z,2.42
2022-12-16T16:58:02.092Z,2.58
2022-12-16T17:00:47.128Z,2.67
2022-12-16T17:03:35.048Z,2.72
2022-12-16T17:06:21.509Z,2.87
2022-12-16T17:09:07.301Z,2.79
2022-12-16T17:11:53.204Z,2.45
2022-12-16T17:14:40.030Z,2.56
2022-12-16T17:17:25.697Z,2.70
2022-12-16T17:20:14.906Z,2.78
2022-12-16T17:23:00.721Z,2.32
2022-12-16T17:25:57.495Z,2.12
2022-12-16T17:28:42.484Z,1.36
2022-12-16T17:31:29.436Z,0.84
2022-12-16T17:34:14.862Z,0.71
2022-12-16T17:37:01.775Z,1.47
2022-12-16T17:39:47.255Z,1.40
2022-12-16T17:42:32.552Z,1.69
2022-12-16T17:45:18.322Z,1.76
2022-12-16T17:48:03.653Z,2.04
2022-12-16T17:50:48.927Z,1.89
2022-12-16T17:53:35.885Z,1.54
2022-12-16T17:56:23.093Z,1.81
2022-12-16T17:59:10.943Z,1.66
2022-12-16T18:01:56.926Z,1.22
2022-12-16T18:04:42.862Z,1.30
2022-12-16T18:07:28.131Z,1.69
2022-12-16T18:10:17.160Z,0.98
2022-12-16T18:13:02.885Z,1.09
2022-12-16T18:15:48.333Z,0.61
2022-12-16T18:18:33.634Z,0.42
2022-12-16T18:21:27.525Z,0.72
2022-12-16T18:24:12.802Z,0.79
2022-12-16T18:26:59.907Z,0.69
2022-12-16T18:29:45.895Z,1.23
2022-12-16T18:32:35.093Z,1.54
2022-12-16T18:35:21.165Z,1.83
2022-12-16T18:38:06.512Z,1.59
2022-12-16T18:40:52.369Z,1.65
2022-12-16T18:43:38.922Z,1.91
2022-12-16T18:46:24.625Z,1.65
2022-12-16T18:49:09.942Z,2.04
2022-12-16T18:51:55.449Z,1.75
2022-12-16T18:54:40.903Z,1.98
2022-12-16T18:57:26.118Z,1.54
2022-12-16T19:00:12.916Z,0.81
2022-12-16T19:02:58.537Z,1.00
2022-12-16T19:05:44.291Z,-0.16
2022-12-16T19:08:29.687Z,-0.05
2022-12-16T19:11:15.984Z,-0.48
2022-12-16T19:14:01.775Z,-0.38
2022-12-16T19:16:49.082Z,-0.37
2022-12-16T19:19:34.493Z,-0.10
2022-12-16T19:22:20.280Z,-0.43
2022-12-16T19:25:05.821Z,-0.67
2022-12-16T19:27:51.217Z,-0.64
2022-12-16T19:30:37.514Z,-0.67
2022-12-16T19:33:24.545Z,-0.83
2022-12-16T19:36:09.893Z,-0.66
2022-12-16T19:38:56.518Z,-0.38
2022-12-16T19:41:42.074Z,-0.19
2022-12-16T19:44:27.844Z,-0.67
2022-12-16T19:47:13.287Z,-0.09
2022-12-16T19:49:59.893Z,-0.13
2022-12-16T19:52:45.639Z,0.37
2022-12-16T19:55:30.835Z,0.37
2022-12-16T19:58:16.444Z,0.61
2022-12-16T20:01:02.090Z,0.45
2022-12-16T20:03:48.089Z,0.84
2022-12-16T20:06:31.699Z,1.02
2022-12-16T20:09:17.290Z,0.84
2022-12-16T20:12:03.103Z,1.09
2022-12-16T20:15:05.557Z,0.78
2022-12-16T20:17:51.733Z,0.54
2022-12-16T20:20:37.598Z,0.63
2022-12-16T20:23:24.612Z,0.83
2022-12-16T20:26:14.534Z,0.00
2022-12-16T20:28:59.927Z,0.97
2022-12-16T20:31:45.806Z,1.24
2022-12-16T20:34:31.800Z,1.28
2022-12-16T20:37:25.786Z,0.72
2022-12-16T20:40:12.698Z,0.13
2022-12-16T20:42:58.219Z,1.10
2022-12-16T20:45:43.585Z,1.53
2022-12-16T20:48:32.475Z,1.16
2022-12-16T20:51:26.542Z,1.12
2022-12-16T20:54:13.326Z,1.11
2022-12-16T20:57:08.281Z,0.67
2022-12-16T21:00:09.425Z,1.08
2022-12-16T21:02:55.083Z,1.08
2022-12-16T21:05:41.342Z,1.01
2022-12-16T21:08:28.901Z,1.02
2022-12-16T21:11:15.341Z,0.73
2022-12-16T21:14:02.325Z,0.54
2022-12-16T21:16:47.916Z,0.64
2022-12-16T21:19:33.935Z,0.94
2022-12-16T21:22:19.309Z,-0.25
2022-12-16T21:25:04.884Z,-0.56
2022-12-16T21:27:50.397Z,-0.09
2022-12-16T21:30:37.642Z,-0.32
2022-12-16T21:33:23.401Z,-0.73
2022-12-16T21:36:12.479Z,-0.65
2022-12-16T21:38:57.962Z,-0.36
2022-12-16T21:41:42.457Z,-0.40
2022-12-16T21:44:27.695Z,-0.93
2022-12-16T21:47:14.532Z,-0.54
2022-12-16T21:49:59.980Z,-0.34
2022-12-16T21:52:45.679Z,-0.63
2022-12-16T21:55:36.375Z,-0.88
2022-12-16T21:58:22.220Z,-1.05
2022-12-16T22:01:12.937Z,-1.08
2022-12-16T22:03:59.969Z,-1.00
2022-12-16T22:06:48.841Z,-0.78
2022-12-16T22:09:35.016Z,-0.13
2022-12-16T22:12:20.233Z,-0.05
2022-12-16T22:15:05.576Z,-0.08
2022-12-16T22:17:57.773Z,-0.22
2022-12-16T22:20:45.305Z,-0.52
2022-12-16T22:23:31.231Z,-0.70
2022-12-16T22:26:17.539Z,-1.19
2022-12-16T22:29:14.826Z,-0.75
2022-12-16T22:32:00.171Z,-0.93
2022-12-16T22:34:45.569Z,-1.13
2022-12-16T22:37:32.363Z,-1.37
2022-12-16T22:40:17.958Z,-1.49
2022-12-16T22:43:06.578Z,-1.34
2022-12-16T22:45:51.986Z,-1.52
2022-12-16T22:48:37.214Z,-1.16
2022-12-16T22:51:23.233Z,-0.94
2022-12-16T22:54:09.774Z,-1.12
2022-12-16T22:56:56.308Z,-0.81
2022-12-16T22:59:42.011Z,0.01
2022-12-16T23:02:27.346Z,-0.58
2022-12-16T23:05:12.590Z,-0.46
2022-12-16T23:07:57.791Z,-0.27
2022-12-16T23:10:44.746Z,-0.04
2022-12-16T23:13:31.156Z,-0.26
2022-12-16T23:16:16.989Z,-0.43
2022-12-16T23:19:10.720Z,-0.94
2022-12-16T23:22:07.651Z,-0.86
2022-12-16T23:24:53.347Z,-0.75
2022-12-16T23:27:40.666Z,-0.96
2022-12-16T23:30:27.700Z,-0.56
2022-12-16T23:33:16.525Z,-0.69
2022-12-16T23:36:01.836Z,-0.75
2022-12-16T23:38:47.161Z,-0.29
2022-12-16T23:41:32.455Z,-0.61
2022-12-16T23:44:19.575Z,-0.29
2022-12-16T23:47:04.917Z,0.12
2022-12-16T23:49:50.142Z,-0.24
2022-12-16T23:52:37.799Z,-0.60
2022-12-16T23:55:24.347Z,-0.56
2022-12-16T23:58:17.022Z,-1.12
